Hauptseite
METAR-TAF:

METAR-TAF

Flughäfen :

Flughafen Duschanbe

Duschanbe, Tadschikistan

Breite: 38-33N, Länge: 068-47E, Höhe: 803 m

Beobachtung

Neuester Wetterbericht von vor 20 Minuten, um 18:30 UTC
Wind 4 kt aus unterschiedlichen Richtungen
Temperatur 7°C
Luftfeuchtigkeit 53%
Luftdruck 1025 hPa
Sichtweite 10 km oder mehr

METAR: UTDD 161830Z VRB02MPS 9999 NSC 07/M02 Q1025 R09/CLRD// NOSIG RMK QFE700/0933

Zeit: 23:50 (18:50 UTC)

Prognose

Neuester Wetterbericht von vor 6 Stunden und 50 Minuten, um 12:00 UTC
Gültige Prognose vom 16 um 13 UTC bis 17 um 01 UTC
Wind 4 kt aus unterschiedlichen Richtungen
Sichtweite: 5000 m
Rauch
Zeitweise
vom 16 um 15 UTC bis 17 um 01 UTC
Sichtweite: 3100 m
Rauch

TAF: UTDD 161200Z 1613/1701 VRB02MPS 5000 FU NSC TEMPO 1615/1701 3100 FU

Wetterbeobachtungen und Prognosen von mehr als 4000 Flughäfen (METAR und TAF Bericht).

Die verfügbaren Stationen werden durch gelbe und rote Markierungen auf der Karte dargestellt.

Führen Sie die Maus auf sie, um den Namen der Station zu sehen.

Darauf klicken, um die Beobachtung von Wetterbeobachtungen und Prognosen zu sehen.

Um die Karte zu ändern : klicken Sie auf den grünen Tasten mit einem schwarzen Kreuz Zum Vergrößern, auf den grünen Button mit einem Gedankenstrich zu verkleinern, oder auf die grünen Pfeile für benachbarte Karten.


METAR-TAF: